sensor_id;sensor_type;location;lat;lon;timestamp;P1;durP1;ratioP1;P2;durP2;ratioP2
45944;SDS011;31655;48.972;10.686;2023-02-15T00:00:24;84.70;;;26.27;;
45944;SDS011;31655;48.972;10.686;2023-02-15T00:02:50;202.48;;;33.03;;
45944;SDS011;31655;48.972;10.686;2023-02-15T00:05:16;184.13;;;33.05;;
45944;SDS011;31655;48.972;10.686;2023-02-15T00:07:42;189.52;;;33.25;;
45944;SDS011;31655;48.972;10.686;2023-02-15T00:10:08;100.63;;;26.85;;
45944;SDS011;31655;48.972;10.686;2023-02-15T00:12:35;90.47;;;25.08;;
45944;SDS011;31655;48.972;10.686;2023-02-15T00:15:02;123.53;;;27.55;;
45944;SDS011;31655;48.972;10.686;2023-02-15T00:17:28;110.82;;;27.02;;
45944;SDS011;31655;48.972;10.686;2023-02-15T00:19:54;87.30;;;25.30;;
45944;SDS011;31655;48.972;10.686;2023-02-15T00:22:20;97.47;;;26.35;;
45944;SDS011;31655;48.972;10.686;2023-02-15T00:24:46;185.05;;;30.58;;
45944;SDS011;31655;48.972;10.686;2023-02-15T00:27:13;223.48;;;33.72;;
45944;SDS011;31655;48.972;10.686;2023-02-15T00:37:26;100.25;;;27.05;;
45944;SDS011;31655;48.972;10.686;2023-02-15T00:39:52;65.57;;;22.85;;
45944;SDS011;31655;48.972;10.686;2023-02-15T00:42:18;124.78;;;30.38;;
45944;SDS011;31655;48.972;10.686;2023-02-15T00:44:44;90.80;;;28.90;;
45944;SDS011;31655;48.972;10.686;2023-02-15T00:47:10;85.47;;;26.23;;
45944;SDS011;31655;48.972;10.686;2023-02-15T00:49:36;76.28;;;22.92;;
45944;SDS011;31655;48.972;10.686;2023-02-15T00:52:02;86.95;;;25.17;;
45944;SDS011;31655;48.972;10.686;2023-02-15T00:54:28;72.78;;;25.42;;
45944;SDS011;31655;48.972;10.686;2023-02-15T00:56:54;208.00;;;35.63;;
45944;SDS011;31655;48.972;10.686;2023-02-15T00:59:20;205.18;;;33.70;;
45944;SDS011;31655;48.972;10.686;2023-02-15T01:01:46;104.72;;;25.88;;
45944;SDS011;31655;48.972;10.686;2023-02-15T01:04:12;167.20;;;32.13;;
45944;SDS011;31655;48.972;10.686;2023-02-15T01:06:38;280.65;;;40.50;;
45944;SDS011;31655;48.972;10.686;2023-02-15T01:09:04;168.77;;;32.33;;
45944;SDS011;31655;48.972;10.686;2023-02-15T01:11:31;85.15;;;27.20;;
45944;SDS011;31655;48.972;10.686;2023-02-15T01:13:57;116.93;;;30.73;;
45944;SDS011;31655;48.972;10.686;2023-02-15T01:16:24;172.25;;;33.60;;
45944;SDS011;31655;48.972;10.686;2023-02-15T01:18:51;80.32;;;25.23;;
45944;SDS011;31655;48.972;10.686;2023-02-15T01:21:21;163.65;;;32.00;;
45944;SDS011;31655;48.972;10.686;2023-02-15T01:23:47;234.98;;;37.65;;
45944;SDS011;31655;48.972;10.686;2023-02-15T01:26:13;425.90;;;50.92;;
45944;SDS011;31655;48.972;10.686;2023-02-15T01:28:40;171.35;;;34.33;;
45944;SDS011;31655;48.972;10.686;2023-02-15T01:31:09;317.17;;;41.45;;
45944;SDS011;31655;48.972;10.686;2023-02-15T01:33:35;165.63;;;33.28;;
45944;SDS011;31655;48.972;10.686;2023-02-15T01:36:01;153.32;;;31.00;;
45944;SDS011;31655;48.972;10.686;2023-02-15T01:38:28;96.93;;;28.27;;
45944;SDS011;31655;48.972;10.686;2023-02-15T01:40:54;154.48;;;33.33;;
45944;SDS011;31655;48.972;10.686;2023-02-15T01:43:44;143.95;;;29.33;;
45944;SDS011;31655;48.972;10.686;2023-02-15T01:46:10;82.90;;;24.45;;
45944;SDS011;31655;48.972;10.686;2023-02-15T01:48:40;223.68;;;32.83;;
45944;SDS011;31655;48.972;10.686;2023-02-15T01:54:01;236.68;;;35.67;;
45944;SDS011;31655;48.972;10.686;2023-02-15T01:56:29;320.98;;;42.75;;
45944;SDS011;31655;48.972;10.686;2023-02-15T01:58:57;236.73;;;37.35;;
45944;SDS011;31655;48.972;10.686;2023-02-15T02:01:24;272.05;;;38.38;;
45944;SDS011;31655;48.972;10.686;2023-02-15T02:04:00;243.20;;;40.70;;
45944;SDS011;31655;48.972;10.686;2023-02-15T02:06:27;428.50;;;50.58;;
45944;SDS011;31655;48.972;10.686;2023-02-15T02:08:54;358.70;;;45.00;;
45944;SDS011;31655;48.972;10.686;2023-02-15T02:11:20;202.38;;;33.60;;
45944;SDS011;31655;48.972;10.686;2023-02-15T02:13:46;474.48;;;62.03;;
45944;SDS011;31655;48.972;10.686;2023-02-15T02:16:28;241.88;;;39.20;;
45944;SDS011;31655;48.972;10.686;2023-02-15T02:32:31;307.20;;;40.65;;
45944;SDS011;31655;48.972;10.686;2023-02-15T02:42:42;147.20;;;33.70;;
45944;SDS011;31655;48.972;10.686;2023-02-15T02:45:11;101.32;;;27.17;;
45944;SDS011;31655;48.972;10.686;2023-02-15T02:52:44;183.65;;;36.92;;
45944;SDS011;31655;48.972;10.686;2023-02-15T02:55:19;81.80;;;24.73;;
45944;SDS011;31655;48.972;10.686;2023-02-15T02:57:47;98.35;;;25.45;;
45944;SDS011;31655;48.972;10.686;2023-02-15T03:00:18;218.40;;;32.13;;
45944;SDS011;31655;48.972;10.686;2023-02-15T03:02:44;96.43;;;23.67;;
45944;SDS011;31655;48.972;10.686;2023-02-15T03:05:15;112.03;;;26.38;;
45944;SDS011;31655;48.972;10.686;2023-02-15T03:07:42;134.95;;;27.60;;
45944;SDS011;31655;48.972;10.686;2023-02-15T03:10:10;386.83;;;45.80;;
45944;SDS011;31655;48.972;10.686;2023-02-15T03:12:37;102.07;;;24.75;;
45944;SDS011;31655;48.972;10.686;2023-02-15T03:15:09;79.53;;;23.48;;
45944;SDS011;31655;48.972;10.686;2023-02-15T03:20:20;247.02;;;43.33;;
45944;SDS011;31655;48.972;10.686;2023-02-15T03:23:06;90.53;;;25.55;;
45944;SDS011;31655;48.972;10.686;2023-02-15T03:25:34;90.32;;;23.52;;
45944;SDS011;31655;48.972;10.686;2023-02-15T03:54:16;64.43;;;21.35;;
45944;SDS011;31655;48.972;10.686;2023-02-15T03:57:03;211.70;;;33.47;;
45944;SDS011;31655;48.972;10.686;2023-02-15T03:59:56;267.20;;;36.42;;
45944;SDS011;31655;48.972;10.686;2023-02-15T04:05:31;380.02;;;47.65;;
45944;SDS011;31655;48.972;10.686;2023-02-15T04:07:57;373.10;;;41.85;;
45944;SDS011;31655;48.972;10.686;2023-02-15T04:10:23;322.98;;;42.53;;
45944;SDS011;31655;48.972;10.686;2023-02-15T04:13:08;252.82;;;36.13;;
45944;SDS011;31655;48.972;10.686;2023-02-15T04:15:34;308.92;;;43.22;;
45944;SDS011;31655;48.972;10.686;2023-02-15T04:18:20;202.27;;;34.53;;
45944;SDS011;31655;48.972;10.686;2023-02-15T04:20:46;311.50;;;41.47;;
45944;SDS011;31655;48.972;10.686;2023-02-15T04:23:32;187.52;;;30.45;;
45944;SDS011;31655;48.972;10.686;2023-02-15T04:26:17;391.80;;;49.25;;
45944;SDS011;31655;48.972;10.686;2023-02-15T04:28:43;181.57;;;32.55;;
45944;SDS011;31655;48.972;10.686;2023-02-15T04:31:09;160.73;;;33.97;;
45944;SDS011;31655;48.972;10.686;2023-02-15T04:33:35;265.88;;;39.80;;
45944;SDS011;31655;48.972;10.686;2023-02-15T04:36:03;160.43;;;32.13;;
45944;SDS011;31655;48.972;10.686;2023-02-15T04:38:29;348.65;;;43.05;;
45944;SDS011;31655;48.972;10.686;2023-02-15T04:40:55;260.80;;;40.05;;
45944;SDS011;31655;48.972;10.686;2023-02-15T04:43:21;360.25;;;42.53;;
45944;SDS011;31655;48.972;10.686;2023-02-15T04:45:48;256.88;;;37.58;;
45944;SDS011;31655;48.972;10.686;2023-02-15T04:48:15;400.27;;;47.78;;
45944;SDS011;31655;48.972;10.686;2023-02-15T04:50:42;233.82;;;35.25;;
45944;SDS011;31655;48.972;10.686;2023-02-15T04:53:09;275.58;;;40.75;;
45944;SDS011;31655;48.972;10.686;2023-02-15T04:55:35;83.22;;;25.67;;
45944;SDS011;31655;48.972;10.686;2023-02-15T04:58:01;251.98;;;42.30;;
45944;SDS011;31655;48.972;10.686;2023-02-15T05:00:27;182.40;;;31.05;;
45944;SDS011;31655;48.972;10.686;2023-02-15T05:02:53;91.75;;;26.75;;
45944;SDS011;31655;48.972;10.686;2023-02-15T05:05:19;93.05;;;26.27;;
45944;SDS011;31655;48.972;10.686;2023-02-15T05:07:45;73.35;;;25.48;;
45944;SDS011;31655;48.972;10.686;2023-02-15T05:10:11;98.82;;;26.67;;
45944;SDS011;31655;48.972;10.686;2023-02-15T05:12:37;164.00;;;32.97;;
45944;SDS011;31655;48.972;10.686;2023-02-15T05:15:03;95.70;;;25.92;;
45944;SDS011;31655;48.972;10.686;2023-02-15T05:17:29;193.20;;;30.42;;
45944;SDS011;31655;48.972;10.686;2023-02-15T05:19:55;359.73;;;45.55;;
45944;SDS011;31655;48.972;10.686;2023-02-15T05:22:21;63.55;;;22.67;;
45944;SDS011;31655;48.972;10.686;2023-02-15T05:24:47;141.40;;;28.67;;
45944;SDS011;31655;48.972;10.686;2023-02-15T05:27:33;121.40;;;25.67;;
45944;SDS011;31655;48.972;10.686;2023-02-15T05:30:18;401.13;;;43.97;;
45944;SDS011;31655;48.972;10.686;2023-02-15T05:32:44;370.35;;;44.45;;
45944;SDS011;31655;48.972;10.686;2023-02-15T05:35:14;383.95;;;50.40;;
45944;SDS011;31655;48.972;10.686;2023-02-15T05:37:40;133.57;;;26.85;;
45944;SDS011;31655;48.972;10.686;2023-02-15T05:40:06;124.88;;;27.02;;
45944;SDS011;31655;48.972;10.686;2023-02-15T05:42:32;95.30;;;26.25;;
45944;SDS011;31655;48.972;10.686;2023-02-15T05:44:58;203.80;;;34.13;;
45944;SDS011;31655;48.972;10.686;2023-02-15T05:47:24;258.50;;;35.75;;
45944;SDS011;31655;48.972;10.686;2023-02-15T05:49:50;66.50;;;22.42;;
45944;SDS011;31655;48.972;10.686;2023-02-15T05:52:17;185.00;;;29.98;;
45944;SDS011;31655;48.972;10.686;2023-02-15T05:54:43;156.85;;;30.00;;
45944;SDS011;31655;48.972;10.686;2023-02-15T05:57:09;213.13;;;34.50;;
45944;SDS011;31655;48.972;10.686;2023-02-15T05:59:35;211.40;;;32.85;;
45944;SDS011;31655;48.972;10.686;2023-02-15T06:02:01;124.60;;;29.80;;
45944;SDS011;31655;48.972;10.686;2023-02-15T06:04:27;90.43;;;26.30;;
45944;SDS011;31655;48.972;10.686;2023-02-15T06:06:53;162.82;;;33.28;;
45944;SDS011;31655;48.972;10.686;2023-02-15T06:09:19;66.55;;;24.48;;
45944;SDS011;31655;48.972;10.686;2023-02-15T06:11:45;75.18;;;24.08;;
45944;SDS011;31655;48.972;10.686;2023-02-15T06:14:11;66.90;;;22.33;;
45944;SDS011;31655;48.972;10.686;2023-02-15T06:16:37;61.45;;;22.67;;
45944;SDS011;31655;48.972;10.686;2023-02-15T06:19:03;87.10;;;25.50;;
45944;SDS011;31655;48.972;10.686;2023-02-15T06:21:29;82.65;;;24.77;;
45944;SDS011;31655;48.972;10.686;2023-02-15T06:23:56;76.65;;;24.73;;
45944;SDS011;31655;48.972;10.686;2023-02-15T06:26:22;53.33;;;21.77;;
45944;SDS011;31655;48.972;10.686;2023-02-15T06:28:48;67.55;;;24.02;;
45944;SDS011;31655;48.972;10.686;2023-02-15T06:31:14;63.88;;;22.65;;
45944;SDS011;31655;48.972;10.686;2023-02-15T06:33:40;74.18;;;24.15;;
45944;SDS011;31655;48.972;10.686;2023-02-15T06:36:06;79.03;;;22.80;;
45944;SDS011;31655;48.972;10.686;2023-02-15T06:38:33;58.85;;;21.02;;
45944;SDS011;31655;48.972;10.686;2023-02-15T06:41:00;120.78;;;26.15;;
45944;SDS011;31655;48.972;10.686;2023-02-15T06:43:26;59.75;;;20.55;;
45944;SDS011;31655;48.972;10.686;2023-02-15T06:45:52;111.90;;;27.45;;
45944;SDS011;31655;48.972;10.686;2023-02-15T06:48:19;99.25;;;24.10;;
45944;SDS011;31655;48.972;10.686;2023-02-15T06:50:45;84.07;;;25.80;;
45944;SDS011;31655;48.972;10.686;2023-02-15T06:53:14;79.18;;;25.27;;
45944;SDS011;31655;48.972;10.686;2023-02-15T06:55:40;72.30;;;22.15;;
45944;SDS011;31655;48.972;10.686;2023-02-15T06:58:06;58.20;;;21.35;;
45944;SDS011;31655;48.972;10.686;2023-02-15T07:00:32;129.10;;;28.85;;
45944;SDS011;31655;48.972;10.686;2023-02-15T07:02:58;296.27;;;47.05;;
45944;SDS011;31655;48.972;10.686;2023-02-15T07:05:25;88.40;;;24.75;;
45944;SDS011;31655;48.972;10.686;2023-02-15T07:07:56;242.02;;;39.63;;
45944;SDS011;31655;48.972;10.686;2023-02-15T07:10:22;120.38;;;34.03;;
45944;SDS011;31655;48.972;10.686;2023-02-15T07:12:48;175.27;;;50.53;;
45944;SDS011;31655;48.972;10.686;2023-02-15T07:15:15;174.45;;;31.70;;
45944;SDS011;31655;48.972;10.686;2023-02-15T07:17:42;244.40;;;60.35;;
45944;SDS011;31655;48.972;10.686;2023-02-15T07:20:09;279.05;;;45.00;;
45944;SDS011;31655;48.972;10.686;2023-02-15T07:22:36;153.48;;;32.10;;
45944;SDS011;31655;48.972;10.686;2023-02-15T07:25:04;189.77;;;32.70;;
45944;SDS011;31655;48.972;10.686;2023-02-15T07:27:31;72.20;;;26.88;;
45944;SDS011;31655;48.972;10.686;2023-02-15T07:29:57;102.28;;;32.53;;
45944;SDS011;31655;48.972;10.686;2023-02-15T07:32:25;99.15;;;39.35;;
45944;SDS011;31655;48.972;10.686;2023-02-15T07:34:52;71.38;;;25.50;;
45944;SDS011;31655;48.972;10.686;2023-02-15T07:37:18;77.28;;;26.42;;
45944;SDS011;31655;48.972;10.686;2023-02-15T07:39:44;150.40;;;27.90;;
45944;SDS011;31655;48.972;10.686;2023-02-15T07:42:11;114.00;;;26.58;;
45944;SDS011;31655;48.972;10.686;2023-02-15T07:44:38;74.07;;;24.38;;
45944;SDS011;31655;48.972;10.686;2023-02-15T07:47:03;64.65;;;24.75;;
45944;SDS011;31655;48.972;10.686;2023-02-15T07:49:30;70.57;;;22.08;;
45944;SDS011;31655;48.972;10.686;2023-02-15T07:51:55;60.13;;;24.80;;
45944;SDS011;31655;48.972;10.686;2023-02-15T07:54:21;70.40;;;23.55;;
45944;SDS011;31655;48.972;10.686;2023-02-15T07:56:47;53.17;;;23.02;;
45944;SDS011;31655;48.972;10.686;2023-02-15T07:59:14;54.83;;;22.45;;
45944;SDS011;31655;48.972;10.686;2023-02-15T08:01:40;50.97;;;19.45;;
45944;SDS011;31655;48.972;10.686;2023-02-15T08:06:42;75.82;;;22.67;;
45944;SDS011;31655;48.972;10.686;2023-02-15T08:09:11;48.28;;;18.63;;
45944;SDS011;31655;48.972;10.686;2023-02-15T08:16:59;96.78;;;22.42;;
45944;SDS011;31655;48.972;10.686;2023-02-15T08:19:30;45.22;;;19.42;;
45944;SDS011;31655;48.972;10.686;2023-02-15T08:21:58;49.30;;;20.27;;
45944;SDS011;31655;48.972;10.686;2023-02-15T08:24:26;47.35;;;16.70;;
45944;SDS011;31655;48.972;10.686;2023-02-15T08:26:52;68.18;;;17.63;;
45944;SDS011;31655;48.972;10.686;2023-02-15T08:29:20;43.95;;;18.90;;
45944;SDS011;31655;48.972;10.686;2023-02-15T08:31:47;36.40;;;16.92;;
45944;SDS011;31655;48.972;10.686;2023-02-15T08:34:18;66.28;;;17.92;;
45944;SDS011;31655;48.972;10.686;2023-02-15T08:36:44;38.08;;;15.30;;
45944;SDS011;31655;48.972;10.686;2023-02-15T08:39:11;51.95;;;18.27;;
45944;SDS011;31655;48.972;10.686;2023-02-15T08:41:37;32.53;;;15.73;;
45944;SDS011;31655;48.972;10.686;2023-02-15T08:44:05;33.92;;;17.13;;
45944;SDS011;31655;48.972;10.686;2023-02-15T08:46:33;38.92;;;17.48;;
45944;SDS011;31655;48.972;10.686;2023-02-15T08:49:00;68.20;;;19.23;;
45944;SDS011;31655;48.972;10.686;2023-02-15T08:51:28;53.92;;;18.33;;
45944;SDS011;31655;48.972;10.686;2023-02-15T08:53:56;43.38;;;16.90;;
45944;SDS011;31655;48.972;10.686;2023-02-15T08:56:24;45.45;;;15.75;;
45944;SDS011;31655;48.972;10.686;2023-02-15T08:58:52;33.67;;;17.40;;
45944;SDS011;31655;48.972;10.686;2023-02-15T09:01:19;36.40;;;15.60;;
45944;SDS011;31655;48.972;10.686;2023-02-15T09:03:47;34.80;;;14.43;;
45944;SDS011;31655;48.972;10.686;2023-02-15T09:06:14;39.00;;;17.35;;
45944;SDS011;31655;48.972;10.686;2023-02-15T09:08:40;27.10;;;14.88;;
45944;SDS011;31655;48.972;10.686;2023-02-15T09:11:07;36.25;;;15.95;;
45944;SDS011;31655;48.972;10.686;2023-02-15T09:13:38;72.00;;;17.95;;
45944;SDS011;31655;48.972;10.686;2023-02-15T09:16:05;31.80;;;15.43;;
45944;SDS011;31655;48.972;10.686;2023-02-15T09:18:34;37.83;;;15.60;;
45944;SDS011;31655;48.972;10.686;2023-02-15T09:21:08;32.05;;;14.65;;
45944;SDS011;31655;48.972;10.686;2023-02-15T09:23:38;34.90;;;14.48;;
45944;SDS011;31655;48.972;10.686;2023-02-15T09:26:05;35.55;;;14.18;;
45944;SDS011;31655;48.972;10.686;2023-02-15T09:28:31;36.53;;;15.48;;
45944;SDS011;31655;48.972;10.686;2023-02-15T09:31:31;78.78;;;19.75;;
45944;SDS011;31655;48.972;10.686;2023-02-15T09:33:50;31.63;;;15.40;;
45944;SDS011;31655;48.972;10.686;2023-02-15T09:36:18;44.03;;;18.05;;
45944;SDS011;31655;48.972;10.686;2023-02-15T09:38:54;31.38;;;14.35;;
45944;SDS011;31655;48.972;10.686;2023-02-15T09:55:34;27.73;;;13.37;;
45944;SDS011;31655;48.972;10.686;2023-02-15T10:04:01;26.95;;;13.75;;
45944;SDS011;31655;48.972;10.686;2023-02-15T10:09:09;20.00;;;11.70;;
45944;SDS011;31655;48.972;10.686;2023-02-15T10:14:37;22.17;;;11.98;;
45944;SDS011;31655;48.972;10.686;2023-02-15T10:28:57;24.08;;;12.93;;
45944;SDS011;31655;48.972;10.686;2023-02-15T10:31:30;25.48;;;13.73;;
45944;SDS011;31655;48.972;10.686;2023-02-15T11:01:40;18.98;;;11.63;;
45944;SDS011;31655;48.972;10.686;2023-02-15T11:09:46;21.60;;;12.52;;
45944;SDS011;31655;48.972;10.686;2023-02-15T11:12:15;23.95;;;13.38;;
45944;SDS011;31655;48.972;10.686;2023-02-15T11:14:45;26.15;;;13.70;;
45944;SDS011;31655;48.972;10.686;2023-02-15T11:17:18;24.08;;;12.73;;
45944;SDS011;31655;48.972;10.686;2023-02-15T11:19:58;22.10;;;12.45;;
45944;SDS011;31655;48.972;10.686;2023-02-15T11:22:26;24.02;;;13.25;;
45944;SDS011;31655;48.972;10.686;2023-02-15T11:24:52;24.30;;;13.68;;
45944;SDS011;31655;48.972;10.686;2023-02-15T11:27:26;24.65;;;13.15;;
45944;SDS011;31655;48.972;10.686;2023-02-15T11:29:57;25.98;;;13.57;;
45944;SDS011;31655;48.972;10.686;2023-02-15T11:32:35;25.55;;;13.63;;
45944;SDS011;31655;48.972;10.686;2023-02-15T11:35:04;22.55;;;13.45;;
45944;SDS011;31655;48.972;10.686;2023-02-15T11:37:59;24.20;;;12.40;;
45944;SDS011;31655;48.972;10.686;2023-02-15T11:40:49;24.50;;;14.23;;
45944;SDS011;31655;48.972;10.686;2023-02-15T11:43:35;22.10;;;13.02;;
45944;SDS011;31655;48.972;10.686;2023-02-15T11:46:07;24.40;;;13.32;;
45944;SDS011;31655;48.972;10.686;2023-02-15T11:48:34;25.13;;;14.27;;
45944;SDS011;31655;48.972;10.686;2023-02-15T11:51:01;21.35;;;13.23;;
45944;SDS011;31655;48.972;10.686;2023-02-15T11:53:32;26.25;;;14.50;;
45944;SDS011;31655;48.972;10.686;2023-02-15T11:55:58;39.58;;;19.38;;
45944;SDS011;31655;48.972;10.686;2023-02-15T12:01:09;26.00;;;14.60;;
45944;SDS011;31655;48.972;10.686;2023-02-15T12:06:05;30.67;;;18.00;;
45944;SDS011;31655;48.972;10.686;2023-02-15T12:08:39;32.95;;;16.58;;
45944;SDS011;31655;48.972;10.686;2023-02-15T12:11:10;31.95;;;17.27;;
45944;SDS011;31655;48.972;10.686;2023-02-15T12:13:54;28.95;;;14.85;;
45944;SDS011;31655;48.972;10.686;2023-02-15T12:16:24;22.00;;;13.88;;
45944;SDS011;31655;48.972;10.686;2023-02-15T12:18:50;28.52;;;14.93;;
45944;SDS011;31655;48.972;10.686;2023-02-15T12:21:25;21.38;;;13.52;;
45944;SDS011;31655;48.972;10.686;2023-02-15T12:23:53;28.85;;;13.95;;
45944;SDS011;31655;48.972;10.686;2023-02-15T12:26:26;27.50;;;16.13;;
45944;SDS011;31655;48.972;10.686;2023-02-15T12:28:52;25.70;;;14.15;;
45944;SDS011;31655;48.972;10.686;2023-02-15T12:33:49;30.23;;;16.17;;
45944;SDS011;31655;48.972;10.686;2023-02-15T12:36:19;29.73;;;15.60;;
45944;SDS011;31655;48.972;10.686;2023-02-15T12:39:01;30.27;;;16.42;;
45944;SDS011;31655;48.972;10.686;2023-02-15T12:41:29;27.10;;;15.98;;
45944;SDS011;31655;48.972;10.686;2023-02-15T12:44:06;27.25;;;15.43;;
45944;SDS011;31655;48.972;10.686;2023-02-15T12:46:32;28.40;;;15.70;;
45944;SDS011;31655;48.972;10.686;2023-02-15T12:49:06;27.98;;;16.42;;
45944;SDS011;31655;48.972;10.686;2023-02-15T12:51:48;25.95;;;16.02;;
45944;SDS011;31655;48.972;10.686;2023-02-15T12:54:25;34.45;;;19.17;;
45944;SDS011;31655;48.972;10.686;2023-02-15T12:59:59;26.85;;;17.73;;
45944;SDS011;31655;48.972;10.686;2023-02-15T13:02:42;30.15;;;16.85;;
45944;SDS011;31655;48.972;10.686;2023-02-15T13:05:19;27.73;;;17.13;;
45944;SDS011;31655;48.972;10.686;2023-02-15T13:07:53;28.27;;;17.05;;
45944;SDS011;31655;48.972;10.686;2023-02-15T13:10:21;30.52;;;16.35;;
45944;SDS011;31655;48.972;10.686;2023-02-15T13:12:49;33.10;;;16.58;;
45944;SDS011;31655;48.972;10.686;2023-02-15T13:15:30;27.33;;;15.55;;
45944;SDS011;31655;48.972;10.686;2023-02-15T13:17:57;27.05;;;15.85;;
45944;SDS011;31655;48.972;10.686;2023-02-15T13:20:24;33.50;;;15.68;;
45944;SDS011;31655;48.972;10.686;2023-02-15T13:22:53;27.17;;;15.88;;
45944;SDS011;31655;48.972;10.686;2023-02-15T13:25:25;31.50;;;16.90;;
45944;SDS011;31655;48.972;10.686;2023-02-15T13:27:53;30.73;;;17.42;;
45944;SDS011;31655;48.972;10.686;2023-02-15T13:33:04;30.80;;;17.05;;
45944;SDS011;31655;48.972;10.686;2023-02-15T13:40:57;29.13;;;16.45;;
45944;SDS011;31655;48.972;10.686;2023-02-15T13:46:21;32.58;;;16.98;;
45944;SDS011;31655;48.972;10.686;2023-02-15T13:49:00;32.15;;;16.27;;
45944;SDS011;31655;48.972;10.686;2023-02-15T14:12:02;32.88;;;16.98;;
45944;SDS011;31655;48.972;10.686;2023-02-15T14:14:41;29.70;;;16.55;;
45944;SDS011;31655;48.972;10.686;2023-02-15T14:18:18;31.75;;;17.35;;
45944;SDS011;31655;48.972;10.686;2023-02-15T14:25:30;37.53;;;20.00;;
45944;SDS011;31655;48.972;10.686;2023-02-15T14:28:03;34.70;;;18.35;;
45944;SDS011;31655;48.972;10.686;2023-02-15T14:30:37;37.20;;;19.13;;
45944;SDS011;31655;48.972;10.686;2023-02-15T14:33:07;36.75;;;18.95;;
45944;SDS011;31655;48.972;10.686;2023-02-15T14:35:34;34.70;;;18.65;;
45944;SDS011;31655;48.972;10.686;2023-02-15T14:48:48;36.65;;;18.15;;
45944;SDS011;31655;48.972;10.686;2023-02-15T15:07:02;30.05;;;16.17;;
45944;SDS011;31655;48.972;10.686;2023-02-15T15:09:35;29.17;;;16.20;;
45944;SDS011;31655;48.972;10.686;2023-02-15T15:14:43;30.85;;;16.80;;
45944;SDS011;31655;48.972;10.686;2023-02-15T15:17:11;33.53;;;17.15;;
45944;SDS011;31655;48.972;10.686;2023-02-15T15:22:24;32.08;;;17.75;;
45944;SDS011;31655;48.972;10.686;2023-02-15T15:24:51;29.10;;;17.33;;
45944;SDS011;31655;48.972;10.686;2023-02-15T15:49:12;30.88;;;18.42;;
45944;SDS011;31655;48.972;10.686;2023-02-15T15:51:50;32.90;;;16.23;;
45944;SDS011;31655;48.972;10.686;2023-02-15T16:15:24;43.90;;;23.13;;
45944;SDS011;31655;48.972;10.686;2023-02-15T16:17:51;99.70;;;42.60;;
45944;SDS011;31655;48.972;10.686;2023-02-15T16:22:56;43.92;;;19.85;;
45944;SDS011;31655;48.972;10.686;2023-02-15T16:25:29;39.72;;;21.13;;
45944;SDS011;31655;48.972;10.686;2023-02-15T16:27:57;53.70;;;22.92;;
45944;SDS011;31655;48.972;10.686;2023-02-15T16:31:13;56.72;;;27.88;;
45944;SDS011;31655;48.972;10.686;2023-02-15T16:33:59;54.95;;;30.08;;
45944;SDS011;31655;48.972;10.686;2023-02-15T16:36:26;47.70;;;24.48;;
45944;SDS011;31655;48.972;10.686;2023-02-15T16:41:25;75.82;;;32.65;;
45944;SDS011;31655;48.972;10.686;2023-02-15T16:49:33;68.65;;;27.83;;
45944;SDS011;31655;48.972;10.686;2023-02-15T16:52:00;74.95;;;30.45;;
45944;SDS011;31655;48.972;10.686;2023-02-15T16:54:28;76.82;;;29.98;;
45944;SDS011;31655;48.972;10.686;2023-02-15T16:56:56;75.18;;;31.08;;
45944;SDS011;31655;48.972;10.686;2023-02-15T16:59:37;64.93;;;29.45;;
45944;SDS011;31655;48.972;10.686;2023-02-15T17:02:14;71.13;;;30.85;;
45944;SDS011;31655;48.972;10.686;2023-02-15T17:04:40;67.88;;;29.02;;
45944;SDS011;31655;48.972;10.686;2023-02-15T17:07:15;150.82;;;35.28;;
45944;SDS011;31655;48.972;10.686;2023-02-15T17:13:14;84.20;;;32.78;;
45944;SDS011;31655;48.972;10.686;2023-02-15T17:15:30;62.03;;;27.02;;
45944;SDS011;31655;48.972;10.686;2023-02-15T17:18:11;68.90;;;27.85;;
45944;SDS011;31655;48.972;10.686;2023-02-15T17:20:38;183.75;;;38.92;;
45944;SDS011;31655;48.972;10.686;2023-02-15T17:23:06;66.22;;;28.90;;
45944;SDS011;31655;48.972;10.686;2023-02-15T17:36:27;280.88;;;50.42;;
45944;SDS011;31655;48.972;10.686;2023-02-15T19:06:46;155.02;;;34.45;;
45944;SDS011;31655;48.972;10.686;2023-02-15T21:27:50;55.05;;;22.52;;
45944;SDS011;31655;48.972;10.686;2023-02-15T21:30:17;57.10;;;23.42;;
45944;SDS011;31655;48.972;10.686;2023-02-15T21:32:43;52.28;;;23.83;;
45944;SDS011;31655;48.972;10.686;2023-02-15T21:35:10;51.88;;;23.73;;
45944;SDS011;31655;48.972;10.686;2023-02-15T21:37:40;53.90;;;23.13;;
45944;SDS011;31655;48.972;10.686;2023-02-15T21:42:39;51.55;;;23.20;;
45944;SDS011;31655;48.972;10.686;2023-02-15T21:45:24;55.17;;;25.63;;
45944;SDS011;31655;48.972;10.686;2023-02-15T21:50:34;61.50;;;23.60;;
45944;SDS011;31655;48.972;10.686;2023-02-15T21:53:23;62.30;;;27.23;;
45944;SDS011;31655;48.972;10.686;2023-02-15T21:55:50;60.95;;;27.55;;
45944;SDS011;31655;48.972;10.686;2023-02-15T21:58:18;64.85;;;28.35;;
45944;SDS011;31655;48.972;10.686;2023-02-15T22:00:45;74.60;;;29.63;;
45944;SDS011;31655;48.972;10.686;2023-02-15T22:03:11;64.35;;;29.00;;
45944;SDS011;31655;48.972;10.686;2023-02-15T22:05:38;71.38;;;30.70;;
45944;SDS011;31655;48.972;10.686;2023-02-15T22:08:08;63.28;;;29.05;;
45944;SDS011;31655;48.972;10.686;2023-02-15T22:10:36;66.10;;;30.00;;
45944;SDS011;31655;48.972;10.686;2023-02-15T22:13:02;65.68;;;28.63;;
45944;SDS011;31655;48.972;10.686;2023-02-15T22:15:35;79.47;;;31.95;;
45944;SDS011;31655;48.972;10.686;2023-02-15T22:18:01;70.40;;;28.67;;
45944;SDS011;31655;48.972;10.686;2023-02-15T22:20:28;70.20;;;29.98;;
45944;SDS011;31655;48.972;10.686;2023-02-15T22:22:54;69.53;;;29.55;;
45944;SDS011;31655;48.972;10.686;2023-02-15T22:25:22;71.75;;;30.10;;
45944;SDS011;31655;48.972;10.686;2023-02-15T22:27:48;70.70;;;29.00;;
45944;SDS011;31655;48.972;10.686;2023-02-15T22:30:20;67.80;;;30.30;;
45944;SDS011;31655;48.972;10.686;2023-02-15T22:32:47;70.60;;;30.33;;
45944;SDS011;31655;48.972;10.686;2023-02-15T22:35:21;61.45;;;26.85;;
45944;SDS011;31655;48.972;10.686;2023-02-15T22:53:24;70.03;;;29.92;;
45944;SDS011;31655;48.972;10.686;2023-02-15T22:58:26;76.35;;;31.90;;
45944;SDS011;31655;48.972;10.686;2023-02-15T23:00:55;68.45;;;30.38;;
45944;SDS011;31655;48.972;10.686;2023-02-15T23:03:24;72.13;;;30.25;;
45944;SDS011;31655;48.972;10.686;2023-02-15T23:05:51;77.70;;;32.97;;
45944;SDS011;31655;48.972;10.686;2023-02-15T23:08:17;74.30;;;35.20;;
45944;SDS011;31655;48.972;10.686;2023-02-15T23:10:44;84.25;;;33.33;;
45944;SDS011;31655;48.972;10.686;2023-02-15T23:13:16;81.70;;;34.08;;
45944;SDS011;31655;48.972;10.686;2023-02-15T23:15:50;81.22;;;34.70;;
45944;SDS011;31655;48.972;10.686;2023-02-15T23:20:43;77.97;;;32.08;;
45944;SDS011;31655;48.972;10.686;2023-02-15T23:23:10;74.25;;;32.28;;
45944;SDS011;31655;48.972;10.686;2023-02-15T23:25:37;66.78;;;29.20;;